Clarksdale, MS

10:17 PM CDT on September 20, 2014 (GMT -0500)
Stuttgart Municipal | Change Station
CLOSE
Current Station
Airport
Location: Stuttgart,
Elevation: 223 ft
Nearby Weather Stations

Elev 223 ft 34.60 °N, 91.57 °W | Updated 22 minutes ago

Clear
Clear
73 °F
Feels Like 73 °F
N
0
Wind Variable Wind from North

Today
High -- | Low -- °F
--% Chance of Precip.
Yesterday
High -- | Low -- °F
Precip. -- in
6:49 AM 7:01 PM
Waning Crescent, 9% visible
Pressure 30.01 in
Visibility 10.0 miles
Clouds Clear
Dew Point 66 °F
Humidity 78%
Rainfall 0.00 in
Snow Depth Not available.
UV 0 out of 12
Pollen 8.60 out of 12
Air Quality Not available.
Flu Activity Not available.
METAR KSGT 210255Z AUTO 00000KT 10SM CLR 23/19 A3001 RMK AO1 52014

More Conditions Fewer Conditions

Pressure 30.01 in
Visibility 10.0 miles
Clouds Clear
Dew Point 66 °F
Humidity 78%
Rainfall 0.00 in
Snow Depth Not available.
UV 0 out of 12
Pollen 8.60 out of 12
Air Quality Not available.
Flu Activity Not available.
METAR KSGT 210255Z AUTO 00000KT 10SM CLR 23/19 A3001 RMK AO1 52014

More Conditions Fewer Conditions

10-Day Weather Forecast

Almanac

Astronomy

Sep. 20, 2014 Rise Set
Actual Time 6:49 AM CDT 7:01 PM CDT
Civil Twilight 6:24 AM CDT 7:27 PM CDT
Nautical Twilight 5:54 AM CDT 7:56 PM CDT
Astronomical Twilight 5:25 AM CDT 8:25 PM CDT
Moon 3:35 AM CDT (9/20) 4:59 PM CDT (9/20)
Length of Visible Light 13h 02m
Length of Day
12h 12m
Tomorrow will be 2m 6s shorter.
Waning Crescent, 9% of the Moon is Illuminated
Today
Waning Crescent
Sep 24
New
Oct 1
First Quarter
Oct 8
Full
Oct 15
Last Quarter

Today's Extremes

State Highs State Lows

Community

WunderPhotos

Upload Photos

1,755,068 photos uploaded!

WunderBlogs® & News

Nearby

Snow Depth

Station Depth Elevation
No new snow has been reported.

Earthquake Activity

City Distance Mag. Time & Date
No recent earthquake activity has been reported nearby.
Minimum magnitude displayed is 2.5.

Coastal Water Temperatures

Place Temperature
No Stations Reporting

Nearby Weather Stations